Preview of NWS' New Version of Forecast
This preview is not operational and should not be used for support decisions.

Terminal Aerodrome Forecast (TAF)

Issued by National Weather Service (NWS)

                            
000
FTUS42 KCAE 150520
TAFOGB
TAF
KOGB 150520Z 1506/1606 06006KT P6SM FEW250
      TEMPO 1508/1512 5SM BR SCT006 OVC012
     FM151500 05007KT P6SM SCT040=